Time;durP1;ratioP1;P1;durP2;ratioP2;P2;SDS_P1;SDS_P2;PMS_P1;PMS_P2;Temp;Humidity;BMP_temperature;BMP_pressure;BME280_temperature;BME280_humidity;BME280_pressure;Samples;Min_cycle;Max_cycle;Signal;HPM_P1;HPM_P2
2023/05/22 00:00:43;;;;;;;16.23;10.40;;;16.40;99.90;;;;;;4947602;28;20490;-75
2023/05/22 00:03:09;;;;;;;20.80;10.63;;;16.40;99.90;;;;;;4961894;28;20538;-77
2023/05/22 00:05:37;;;;;;;18.85;9.95;;;16.40;99.90;;;;;;4962422;28;20043;-75
2023/05/22 00:08:04;;;;;;;19.63;10.75;;;16.40;99.90;;;;;;4945563;28;20066;-78
2023/05/22 00:10:30;;;;;;;21.50;10.00;;;16.40;99.90;;;;;;4947235;29;20078;-76
2023/05/22 00:12:55;;;;;;;15.43;9.85;;;16.40;99.90;;;;;;4948670;28;20062;-80
2023/05/22 00:15:21;;;;;;;20.05;9.50;;;16.40;99.90;;;;;;4948219;28;20055;-78
2023/05/22 00:17:46;;;;;;;16.42;9.23;;;16.40;99.90;;;;;;4947047;29;20207;-76
2023/05/22 00:20:12;;;;;;;18.48;10.13;;;16.40;99.90;;;;;;4946241;29;20043;-77
2023/05/22 00:22:38;;;;;;;17.02;9.65;;;16.50;99.90;;;;;;4947714;28;20043;-75
2023/05/22 00:25:04;;;;;;;21.40;10.25;;;16.40;99.90;;;;;;4948623;28;20070;-76
2023/05/22 00:27:30;;;;;;;22.17;10.70;;;16.50;99.90;;;;;;4947534;28;20043;-77
2023/05/22 00:29:56;;;;;;;20.70;10.27;;;16.50;99.90;;;;;;4947610;28;20066;-77
2023/05/22 00:32:22;;;;;;;19.77;10.10;;;16.50;99.90;;;;;;4948198;28;20134;-77
2023/05/22 00:34:47;;;;;;;24.25;11.90;;;16.50;99.90;;;;;;4946993;28;20146;-77
2023/05/22 00:37:13;;;;;;;23.45;11.75;;;16.50;99.90;;;;;;4948248;28;20509;-76
2023/05/22 00:39:38;;;;;;;22.27;11.90;;;16.40;99.90;;;;;;4946347;29;20448;-76
2023/05/22 00:42:04;;;;;;;25.67;11.80;;;16.40;99.90;;;;;;4948025;28;20110;-78
2023/05/22 00:44:30;;;;;;;23.05;12.52;;;16.40;99.90;;;;;;4946810;29;20569;-76
2023/05/22 00:46:56;;;;;;;23.85;11.55;;;16.30;99.90;;;;;;4947612;28;20082;-76
2023/05/22 00:49:21;;;;;;;23.30;12.25;;;16.30;99.90;;;;;;4947718;28;20403;-77
2023/05/22 00:51:47;;;;;;;23.55;12.00;;;16.30;99.90;;;;;;4946553;28;20118;-77
2023/05/22 00:54:14;;;;;;;24.27;11.70;;;16.30;99.90;;;;;;4947881;28;20050;-76
2023/05/22 00:56:40;;;;;;;22.55;11.75;;;16.30;99.90;;;;;;4947878;28;20051;-77
2023/05/22 00:59:07;;;;;;;20.45;12.52;;;16.30;99.90;;;;;;4947898;28;20357;-79
2023/05/22 01:01:35;;;;;;;26.67;11.77;;;16.30;99.90;;;;;;4948323;28;20051;-77
2023/05/22 01:04:03;;;;;;;19.00;11.55;;;16.30;99.90;;;;;;4946468;28;20078;-76
2023/05/22 01:06:30;;;;;;;26.98;13.15;;;16.20;99.90;;;;;;4947754;28;20058;-79
2023/05/22 01:08:57;;;;;;;22.80;11.48;;;16.20;99.90;;;;;;4946776;28;20047;-77
2023/05/22 01:11:34;;;;;;;22.13;11.13;;;16.20;99.90;;;;;;4947735;28;20085;-77
2023/05/22 01:14:09;;;;;;;23.42;11.52;;;16.20;99.90;;;;;;4978194;28;20510;-77
2023/05/22 01:16:36;;;;;;;27.83;12.70;;;16.20;99.90;;;;;;4947463;28;20156;-76
2023/05/22 01:19:24;;;;;;;21.15;12.20;;;16.20;99.90;;;;;;4977275;28;20051;-76
2023/05/22 01:22:30;;;;;;;24.65;11.93;;;16.20;99.90;;;;;;4942253;28;20067;-76
2023/05/22 01:25:31;;;;;;;19.45;12.13;;;16.20;99.90;;;;;;4978797;28;20051;-77
2023/05/22 01:28:39;;;;;;;28.88;12.25;;;16.20;99.90;;;;;;4943203;28;20047;-78
2023/05/22 01:31:10;;;;;;;23.13;11.60;;;16.20;99.90;;;;;;4944678;29;20054;-76
2023/05/22 01:33:47;;;;;;;30.27;13.00;;;16.20;99.90;;;;;;4943744;28;20496;-76
2023/05/22 01:36:21;;;;;;;22.80;11.93;;;16.20;99.90;;;;;;4945788;28;20057;-76
2023/05/22 01:38:47;;;;;;;27.42;13.15;;;16.20;99.90;;;;;;4944925;28;20070;-76
2023/05/22 01:41:13;;;;;;;25.70;12.23;;;16.20;99.90;;;;;;4962053;28;20365;-76
2023/05/22 01:43:40;;;;;;;28.35;13.90;;;16.20;99.90;;;;;;4947132;28;20066;-79
2023/05/22 01:46:05;;;;;;;21.42;11.20;;;16.20;99.90;;;;;;4946823;28;20098;-76
2023/05/22 01:48:31;;;;;;;21.70;12.38;;;16.20;99.90;;;;;;4977219;28;20046;-78
2023/05/22 01:51:04;;;;;;;24.02;13.88;;;16.20;99.90;;;;;;4977888;28;20489;-76
2023/05/22 01:53:37;;;;;;;29.48;12.15;;;16.20;99.90;;;;;;4961496;28;20085;-79
2023/05/22 01:56:09;;;;;;;28.38;13.38;;;16.30;99.90;;;;;;4945246;28;20134;-77
2023/05/22 01:58:51;;;;;;;23.05;11.65;;;16.30;99.90;;;;;;4946851;28;20047;-76
2023/05/22 02:01:18;;;;;;;27.23;13.63;;;16.30;99.90;;;;;;4946164;28;20295;-76
2023/05/22 02:03:47;;;;;;;25.67;13.35;;;16.20;99.90;;;;;;4944324;29;20441;-76
2023/05/22 02:06:13;;;;;;;25.70;13.05;;;16.20;99.90;;;;;;4945638;28;20047;-76
2023/05/22 02:08:41;;;;;;;26.38;14.10;;;16.30;99.90;;;;;;4946266;28;20487;-76
2023/05/22 02:11:09;;;;;;;30.42;14.02;;;16.20;99.90;;;;;;4946353;28;20047;-77
2023/05/22 02:13:36;;;;;;;29.92;13.70;;;16.30;99.90;;;;;;4945220;28;20110;-76
2023/05/22 02:16:02;;;;;;;28.65;14.43;;;16.30;99.90;;;;;;4946821;28;20386;-76
2023/05/22 02:18:29;;;;;;;27.88;14.90;;;16.30;99.90;;;;;;4944149;29;20126;-75
2023/05/22 02:20:59;;;;;;;26.83;14.02;;;16.20;99.90;;;;;;4946099;28;20050;-76
2023/05/22 02:23:28;;;;;;;25.42;13.55;;;16.20;99.90;;;;;;4945891;28;20252;-76
2023/05/22 02:25:54;;;;;;;26.52;13.32;;;16.20;99.90;;;;;;4945807;28;20039;-76
2023/05/22 02:28:20;;;;;;;22.48;12.25;;;16.20;99.90;;;;;;4945263;28;20243;-75
2023/05/22 02:30:45;;;;;;;26.50;13.35;;;16.20;99.90;;;;;;4944830;29;20459;-75
2023/05/22 02:33:11;;;;;;;23.42;13.45;;;16.20;99.90;;;;;;4943518;28;20533;-76
2023/05/22 02:35:36;;;;;;;30.27;14.38;;;16.20;99.90;;;;;;4945199;28;20039;-75
2023/05/22 02:38:02;;;;;;;27.67;13.25;;;16.20;99.90;;;;;;4946241;28;20078;-76
2023/05/22 02:40:28;;;;;;;28.20;14.70;;;16.20;99.90;;;;;;4946005;28;20043;-76
2023/05/22 02:42:53;;;;;;;25.80;13.05;;;16.20;99.90;;;;;;4946077;28;20039;-75
2023/05/22 02:45:19;;;;;;;27.75;13.73;;;16.10;99.90;;;;;;4945356;28;20102;-76
2023/05/22 02:47:44;;;;;;;25.95;13.02;;;16.10;99.90;;;;;;4943467;28;20053;-75
2023/05/22 02:50:10;;;;;;;27.70;13.98;;;16.20;99.90;;;;;;4945993;28;20066;-75
2023/05/22 02:52:38;;;;;;;24.35;14.27;;;16.10;99.90;;;;;;4945030;28;20106;-77
2023/05/22 02:55:04;;;;;;;24.02;12.02;;;16.10;99.90;;;;;;4944757;28;20058;-76
2023/05/22 02:57:29;;;;;;;23.23;12.65;;;16.10;99.90;;;;;;4945257;28;20043;-75
2023/05/22 02:59:56;;;;;;;27.80;13.38;;;16.10;99.90;;;;;;4945146;28;20118;-75
2023/05/22 03:02:25;;;;;;;32.53;13.05;;;16.10;99.90;;;;;;4945172;28;20043;-76
2023/05/22 03:04:50;;;;;;;28.30;12.85;;;16.10;99.90;;;;;;4945297;28;20498;-78
2023/05/22 03:07:16;;;;;;;28.48;12.00;;;16.00;99.90;;;;;;4945127;28;20042;-76
2023/05/22 03:09:41;;;;;;;31.13;13.52;;;16.00;99.90;;;;;;4944240;29;20122;-78
2023/05/22 03:12:07;;;;;;;28.73;13.98;;;16.00;99.90;;;;;;4976548;28;20427;-75
2023/05/22 03:14:33;;;;;;;29.65;14.10;;;16.00;99.90;;;;;;4945155;28;20065;-76
2023/05/22 03:16:59;;;;;;;25.95;14.07;;;16.00;99.90;;;;;;4944921;28;20209;-74
2023/05/22 03:19:25;;;;;;;28.63;13.73;;;15.90;99.90;;;;;;4944662;28;20050;-76
2023/05/22 03:21:50;;;;;;;27.23;12.38;;;15.90;99.90;;;;;;4943989;28;20043;-76
2023/05/22 03:24:16;;;;;;;29.10;14.57;;;15.90;99.90;;;;;;4945015;28;20054;-74
2023/05/22 03:26:42;;;;;;;23.98;12.82;;;15.90;99.90;;;;;;4945213;28;20059;-76
2023/05/22 03:29:08;;;;;;;31.42;13.82;;;15.90;99.90;;;;;;4945189;28;20054;-75
2023/05/22 03:31:34;;;;;;;31.55;14.70;;;15.90;99.90;;;;;;4976547;28;20039;-76
2023/05/22 03:34:00;;;;;;;22.13;12.38;;;15.90;99.90;;;;;;4958942;28;20050;-76
2023/05/22 03:36:26;;;;;;;24.75;13.70;;;15.80;99.90;;;;;;4945460;28;20494;-75
2023/05/22 03:38:51;;;;;;;25.15;13.27;;;15.80;99.90;;;;;;4945180;28;20042;-75
2023/05/22 03:41:17;;;;;;;28.17;13.25;;;15.70;99.90;;;;;;4975820;28;20377;-75
2023/05/22 03:43:43;;;;;;;25.00;13.05;;;15.70;99.90;;;;;;4944999;28;20048;-75
2023/05/22 03:46:09;;;;;;;27.52;14.68;;;15.60;99.90;;;;;;4944893;28;20040;-76
2023/05/22 03:48:35;;;;;;;26.50;13.73;;;15.60;99.90;;;;;;4944171;28;20171;-75
2023/05/22 03:51:01;;;;;;;25.05;13.10;;;15.60;99.90;;;;;;4945109;28;20098;-76
2023/05/22 03:53:26;;;;;;;27.52;13.25;;;15.60;99.90;;;;;;4975832;28;20082;-76
2023/05/22 03:55:52;;;;;;;23.67;13.27;;;15.50;99.90;;;;;;4943724;28;20051;-75
2023/05/22 03:58:18;;;;;;;31.08;13.07;;;15.50;99.90;;;;;;4943563;29;20113;-75
2023/05/22 04:00:45;;;;;;;34.22;14.55;;;15.50;99.90;;;;;;4976042;28;20036;-75
2023/05/22 04:03:11;;;;;;;34.85;13.75;;;15.50;99.90;;;;;;4946525;28;20059;-78
2023/05/22 04:05:40;;;;;;;28.63;13.48;;;15.50;99.90;;;;;;4948280;28;20461;-75
2023/05/22 04:08:06;;;;;;;32.53;13.48;;;15.50;99.90;;;;;;4963675;28;20058;-76
2023/05/22 04:10:32;;;;;;;29.20;13.20;;;15.50;99.90;;;;;;4947721;28;20043;-75
2023/05/22 04:12:58;;;;;;;30.67;14.00;;;15.50;99.90;;;;;;4948356;28;20043;-75
2023/05/22 04:15:23;;;;;;;24.70;12.73;;;15.50;99.90;;;;;;4978729;28;20051;-78
2023/05/22 04:17:50;;;;;;;21.67;13.13;;;15.50;99.90;;;;;;4945898;29;20410;-75
2023/05/22 04:20:16;;;;;;;28.00;14.25;;;15.50;99.90;;;;;;4947880;28;20047;-77
2023/05/22 04:22:44;;;;;;;24.48;12.63;;;15.50;99.90;;;;;;4948016;28;20062;-75
2023/05/22 04:25:10;;;;;;;28.85;13.45;;;15.50;99.90;;;;;;4948335;28;20055;-79
2023/05/22 04:27:36;;;;;;;33.03;14.30;;;15.50;99.90;;;;;;4947800;28;20046;-76
2023/05/22 04:30:02;;;;;;;26.23;14.23;;;15.50;99.90;;;;;;4948005;28;20067;-74
2023/05/22 04:32:28;;;;;;;28.92;13.95;;;15.50;99.90;;;;;;4977993;28;20498;-77
2023/05/22 04:34:57;;;;;;;22.92;13.35;;;15.50;99.90;;;;;;4978634;28;20050;-75
2023/05/22 04:37:25;;;;;;;27.25;14.73;;;15.50;99.90;;;;;;4978489;28;20528;-76
2023/05/22 04:39:52;;;;;;;21.73;11.73;;;15.50;99.90;;;;;;4947654;28;20061;-75
2023/05/22 04:42:18;;;;;;;26.00;12.13;;;15.60;99.90;;;;;;4947588;28;20043;-75
2023/05/22 04:44:43;;;;;;;27.10;13.63;;;15.50;99.90;;;;;;4947382;28;20402;-75
2023/05/22 04:47:10;;;;;;;23.70;13.65;;;15.50;99.90;;;;;;4946996;28;20047;-76
2023/05/22 04:49:45;;;;;;;21.77;12.20;;;15.50;99.90;;;;;;4945855;29;20051;-76
2023/05/22 04:52:11;;;;;;;26.02;13.27;;;15.50;99.90;;;;;;4947291;28;20039;-76
2023/05/22 04:54:42;;;;;;;23.80;11.95;;;15.50;99.90;;;;;;4940978;29;20463;-76
2023/05/22 04:57:07;;;;;;;30.30;11.20;;;15.50;99.90;;;;;;4978624;28;20039;-77
2023/05/22 04:59:39;;;;;;;18.50;9.30;;;15.50;99.90;;;;;;4946582;29;20057;-75
2023/05/22 05:02:05;;;;;;;;;;;15.50;99.90;;;;;;4947255;28;20043;-77
2023/05/22 05:04:31;;;;;;;19.20;8.35;;;15.50;99.90;;;;;;4946326;28;19929;-76
2023/05/22 05:06:57;;;;;;;18.67;7.90;;;15.50;99.90;;;;;;4947836;28;20042;-79
2023/05/22 05:09:23;;;;;;;15.02;9.48;;;15.40;99.90;;;;;;4947128;28;20094;-75
2023/05/22 05:11:49;;;;;;;14.40;7.55;;;15.40;99.90;;;;;;4946167;28;20051;-77
2023/05/22 05:14:15;;;;;;;16.25;7.85;;;15.40;99.90;;;;;;4945513;28;20573;-77
2023/05/22 05:16:41;;;;;;;13.25;7.38;;;15.40;99.90;;;;;;4948201;28;20036;-76
2023/05/22 05:19:07;;;;;;;14.65;7.63;;;15.40;99.90;;;;;;4945329;28;20097;-77
2023/05/22 05:21:32;;;;;;;12.10;6.43;;;15.40;99.90;;;;;;4946664;28;20062;-75
2023/05/22 05:23:58;;;;;;;23.17;7.05;;;15.40;99.90;;;;;;4947156;28;20054;-76
2023/05/22 05:26:25;;;;;;;13.05;6.80;;;15.40;99.90;;;;;;4947421;28;20039;-76
2023/05/22 05:28:51;;;;;;;22.83;7.25;;;15.40;99.90;;;;;;4945736;28;20102;-76
2023/05/22 05:31:19;;;;;;;8.00;5.30;;;15.40;99.90;;;;;;4947034;28;20100;-78
2023/05/22 05:33:45;;;;;;;12.98;5.05;;;15.40;99.90;;;;;;4944001;28;20050;-78
2023/05/22 05:36:10;;;;;;;11.63;5.53;;;15.40;99.90;;;;;;4940254;28;20051;-76
2023/05/22 05:38:36;;;;;;;10.02;5.10;;;15.50;99.90;;;;;;4943772;28;20035;-76
2023/05/22 05:41:01;;;;;;;10.80;5.68;;;15.50;99.90;;;;;;4946013;28;20483;-76
2023/05/22 05:43:27;;;;;;;11.15;5.82;;;15.50;99.90;;;;;;4943455;28;20391;-77
2023/05/22 05:45:52;;;;;;;14.68;4.55;;;15.50;99.90;;;;;;4943386;29;20043;-77
2023/05/22 05:48:18;;;;;;;10.77;4.75;;;15.50;99.90;;;;;;4944332;29;20470;-76
2023/05/22 05:50:44;;;;;;;12.45;5.53;;;15.50;99.90;;;;;;4961225;28;20058;-77
2023/05/22 05:53:10;;;;;;;12.00;4.57;;;15.50;99.90;;;;;;4946533;28;20145;-76
2023/05/22 05:55:35;;;;;;;11.15;4.60;;;15.60;99.90;;;;;;4944500;29;20446;-76
2023/05/22 05:58:01;;;;;;;9.25;4.93;;;15.50;99.90;;;;;;4944376;28;20090;-76
2023/05/22 06:00:26;;;;;;;10.75;5.00;;;15.50;99.90;;;;;;4945088;28;20402;-76
2023/05/22 06:02:52;;;;;;;10.23;5.15;;;15.50;99.90;;;;;;4942764;28;20043;-77
2023/05/22 06:05:18;;;;;;;11.23;4.65;;;15.50;99.90;;;;;;4945037;28;20471;-75
2023/05/22 06:07:44;;;;;;;10.30;5.05;;;15.50;99.90;;;;;;4944269;28;20122;-76
2023/05/22 06:10:11;;;;;;;6.97;4.03;;;15.50;99.90;;;;;;4935102;29;20138;-77
2023/05/22 06:12:37;;;;;;;5.95;3.97;;;15.50;99.90;;;;;;4944735;28;20036;-75
2023/05/22 06:15:04;;;;;;;7.65;4.68;;;15.50;99.90;;;;;;4944495;28;20066;-75
2023/05/22 06:17:30;;;;;;;11.57;4.88;;;15.50;99.90;;;;;;4941869;28;20224;-75
2023/05/22 06:19:56;;;;;;;10.18;4.38;;;15.50;99.90;;;;;;4942526;29;20236;-78
2023/05/22 06:22:24;;;;;;;7.97;3.83;;;15.50;99.90;;;;;;4943235;29;20054;-76
2023/05/22 06:24:53;;;;;;;17.52;4.28;;;15.50;99.90;;;;;;4958596;28;20051;-75
2023/05/22 06:27:21;;;;;;;8.32;4.22;;;15.50;99.90;;;;;;4943001;29;20047;-75
2023/05/22 06:29:50;;;;;;;13.60;4.95;;;15.50;99.90;;;;;;4944392;28;20054;-77
2023/05/22 06:32:16;;;;;;;6.13;3.72;;;15.40;99.90;;;;;;4943986;28;20098;-76
2023/05/22 06:34:43;;;;;;;8.15;4.80;;;15.40;99.90;;;;;;4943102;28;20039;-75
2023/05/22 06:37:12;;;;;;;10.98;4.38;;;15.40;99.90;;;;;;4944724;28;20474;-75
2023/05/22 06:39:38;;;;;;;11.85;4.68;;;15.40;99.90;;;;;;4944244;28;20071;-77
2023/05/22 06:42:04;;;;;;;11.93;4.95;;;15.40;99.90;;;;;;4944289;28;20039;-75
2023/05/22 06:44:29;;;;;;;10.98;4.20;;;15.40;99.90;;;;;;4944687;28;20065;-75
2023/05/22 06:46:55;;;;;;;8.25;3.67;;;15.40;99.90;;;;;;4941463;29;20073;-78
2023/05/22 06:49:21;;;;;;;10.00;4.97;;;15.40;99.90;;;;;;4944340;28;20039;-73
2023/05/22 06:51:47;;;;;;;10.98;4.90;;;15.30;99.90;;;;;;4944264;28;20623;-76
2023/05/22 06:54:13;;;;;;;7.20;4.15;;;15.40;99.90;;;;;;4943924;28;20351;-76
2023/05/22 06:56:42;;;;;;;10.23;3.63;;;15.40;99.90;;;;;;4943304;28;20459;-75
2023/05/22 06:59:10;;;;;;;14.80;5.45;;;15.40;99.90;;;;;;4943601;28;20605;-76
2023/05/22 07:01:36;;;;;;;12.57;5.15;;;15.40;99.90;;;;;;4959400;28;20537;-75
2023/05/22 07:04:03;;;;;;;11.63;5.72;;;15.40;99.90;;;;;;4973085;28;20035;-76
2023/05/22 07:06:37;;;;;;;10.18;6.00;;;15.40;99.90;;;;;;4942492;28;20047;-75
2023/05/22 07:09:07;;;;;;;13.23;5.55;;;15.40;99.90;;;;;;4924866;29;20044;-76
2023/05/22 07:11:34;;;;;;;10.25;4.88;;;15.50;99.90;;;;;;4939267;29;20222;-75
2023/05/22 07:14:01;;;;;;;12.05;5.82;;;15.50;99.90;;;;;;4924385;29;20549;-76
2023/05/22 07:16:26;;;;;;;12.77;4.65;;;15.60;99.90;;;;;;4936992;28;20094;-77
2023/05/22 07:18:52;;;;;;;11.13;5.15;;;15.60;99.90;;;;;;4957775;28;20043;-75
2023/05/22 07:21:17;;;;;;;8.77;4.90;;;15.60;99.90;;;;;;4944560;28;20086;-75
2023/05/22 07:23:43;;;;;;;14.95;5.40;;;15.70;99.90;;;;;;4943462;28;20506;-76
2023/05/22 07:26:09;;;;;;;13.82;5.40;;;15.70;99.90;;;;;;4944175;28;20114;-75
2023/05/22 07:28:34;;;;;;;10.60;5.40;;;15.70;99.90;;;;;;4942134;28;20134;-76
2023/05/22 07:31:00;;;;;;;12.15;5.05;;;15.70;99.90;;;;;;4943611;28;20031;-76
2023/05/22 07:33:26;;;;;;;9.38;4.72;;;15.70;99.90;;;;;;4942533;28;20272;-76
2023/05/22 07:35:52;;;;;;;12.13;4.75;;;15.80;99.90;;;;;;4958666;28;20054;-75
2023/05/22 07:38:17;;;;;;;9.57;4.32;;;15.80;99.90;;;;;;4947149;28;20497;-75
2023/05/22 07:40:43;;;;;;;11.45;4.47;;;15.90;99.90;;;;;;4945881;29;20054;-76
2023/05/22 07:43:09;;;;;;;10.18;4.78;;;15.90;99.90;;;;;;4947151;28;20709;-77
2023/05/22 07:45:34;;;;;;;9.32;5.88;;;15.90;99.90;;;;;;4945706;29;20051;-75
2023/05/22 07:48:02;;;;;;;11.45;5.32;;;16.00;99.90;;;;;;4946490;28;20039;-75
2023/05/22 07:50:29;;;;;;;10.13;4.85;;;16.00;99.90;;;;;;4947070;28;20069;-74
2023/05/22 07:52:55;;;;;;;13.88;5.25;;;16.10;99.90;;;;;;4947475;28;20151;-75
2023/05/22 07:55:21;;;;;;;13.40;5.75;;;16.10;99.90;;;;;;4948002;28;20441;-77
2023/05/22 07:57:46;;;;;;;10.70;4.65;;;16.10;99.90;;;;;;4947702;28;20043;-75
2023/05/22 08:00:13;;;;;;;14.60;5.75;;;16.10;99.90;;;;;;4947460;28;20434;-75
2023/05/22 08:02:41;;;;;;;10.93;5.75;;;16.20;99.90;;;;;;4946312;28;20474;-75
2023/05/22 08:05:08;;;;;;;10.43;5.00;;;16.20;99.90;;;;;;4978238;28;20074;-76
2023/05/22 08:07:33;;;;;;;7.53;4.20;;;16.20;99.90;;;;;;4946951;28;20482;-76
2023/05/22 08:10:02;;;;;;;7.90;4.38;;;16.20;99.90;;;;;;4945676;28;20105;-74
2023/05/22 08:12:28;;;;;;;9.75;5.30;;;16.20;99.90;;;;;;4946418;28;20127;-74
2023/05/22 08:14:53;;;;;;;8.27;3.83;;;16.30;99.90;;;;;;4977822;28;20473;-75
2023/05/22 08:17:19;;;;;;;10.88;4.05;;;16.30;99.90;;;;;;4945413;29;20110;-76
2023/05/22 08:19:45;;;;;;;9.55;4.35;;;16.30;99.90;;;;;;4945759;28;20780;-75
2023/05/22 08:22:10;;;;;;;11.05;4.38;;;16.30;99.90;;;;;;4946745;28;20043;-75
2023/05/22 08:24:36;;;;;;;11.13;4.63;;;16.40;99.90;;;;;;4945079;28;20179;-77
2023/05/22 08:27:01;;;;;;;8.52;3.97;;;16.40;99.90;;;;;;4945839;29;20039;-75
2023/05/22 08:29:27;;;;;;;6.50;3.47;;;16.40;99.90;;;;;;4944948;29;20102;-75
2023/05/22 08:31:55;;;;;;;8.73;3.70;;;16.40;99.90;;;;;;4928940;29;20394;-79
2023/05/22 08:34:21;;;;;;;6.45;3.05;;;16.40;99.90;;;;;;4946168;28;20360;-77
2023/05/22 08:36:47;;;;;;;4.30;2.90;;;16.50;99.90;;;;;;4944850;29;20043;-75
2023/05/22 08:39:13;;;;;;;4.05;2.78;;;16.50;99.90;;;;;;4944232;28;20047;-78
2023/05/22 08:41:39;;;;;;;5.57;3.15;;;16.50;99.90;;;;;;4946871;28;20047;-74
2023/05/22 08:44:04;;;;;;;4.40;3.08;;;16.50;99.90;;;;;;4944503;28;20118;-75
2023/05/22 08:46:36;;;;;;;4.40;2.70;;;16.50;99.90;;;;;;4943745;29;20082;-76
2023/05/22 08:49:03;;;;;;;4.13;2.33;;;16.60;99.90;;;;;;4945041;28;20065;-77
2023/05/22 08:51:32;;;;;;;9.55;2.08;;;16.60;99.90;;;;;;4945072;29;20039;-76
2023/05/22 08:53:59;;;;;;;4.07;2.45;;;16.50;99.90;;;;;;4944368;29;20055;-74
2023/05/22 08:56:25;;;;;;;4.75;2.42;;;16.60;99.90;;;;;;4945760;28;20126;-76
2023/05/22 08:58:52;;;;;;;7.35;2.42;;;16.60;99.90;;;;;;4947066;28;20746;-75
2023/05/22 09:01:18;;;;;;;2.83;2.15;;;16.60;99.90;;;;;;4945283;29;20051;-74
2023/05/22 09:03:48;;;;;;;4.60;2.90;;;16.60;99.90;;;;;;4959080;28;20047;-75
2023/05/22 09:06:13;;;;;;;5.20;2.25;;;16.60;99.90;;;;;;4945088;28;20042;-75
2023/05/22 09:08:41;;;;;;;6.40;2.65;;;16.70;99.90;;;;;;4946137;28;20047;-75
2023/05/22 09:11:07;;;;;;;5.78;2.72;;;16.70;99.90;;;;;;4972588;28;20494;-75
2023/05/22 09:13:32;;;;;;;5.50;3.22;;;16.70;99.90;;;;;;4941089;28;20093;-76
2023/05/22 09:16:07;;;;;;;4.40;2.83;;;16.70;99.90;;;;;;4945572;28;20401;-76
2023/05/22 09:18:33;;;;;;;5.65;2.28;;;16.80;99.90;;;;;;4944444;28;20517;-77
2023/05/22 09:21:00;;;;;;;5.95;2.72;;;16.80;99.90;;;;;;4959846;28;20042;-76
2023/05/22 09:23:27;;;;;;;4.78;2.42;;;16.90;99.90;;;;;;4946234;28;20114;-75
2023/05/22 09:25:58;;;;;;;4.90;2.17;;;16.90;99.90;;;;;;4944557;29;20097;-75
2023/05/22 09:28:24;;;;;;;5.85;2.95;;;17.00;99.90;;;;;;4944752;28;20043;-76
2023/05/22 09:30:51;;;;;;;6.00;3.70;;;17.00;99.90;;;;;;4945350;28;20055;-76
2023/05/22 09:33:17;;;;;;;5.97;3.90;;;17.10;99.90;;;;;;4945014;28;20105;-75
2023/05/22 09:35:45;;;;;;;6.25;3.60;;;17.10;99.90;;;;;;4959380;28;20094;-77
2023/05/22 09:38:12;;;;;;;6.85;4.43;;;17.10;99.90;;;;;;4945812;28;20517;-74
2023/05/22 09:40:38;;;;;;;6.43;3.80;;;17.20;99.90;;;;;;4945094;28;20502;-76
2023/05/22 09:43:08;;;;;;;8.00;4.40;;;17.20;99.90;;;;;;4943411;28;20039;-77
2023/05/22 09:45:34;;;;;;;6.60;3.90;;;17.20;99.90;;;;;;4944815;28;20043;-75
2023/05/22 09:48:00;;;;;;;4.75;3.45;;;17.20;99.90;;;;;;4945446;28;20035;-76
2023/05/22 09:50:26;;;;;;;6.68;4.03;;;17.20;99.90;;;;;;4960017;28;20039;-78
2023/05/22 09:52:53;;;;;;;9.88;4.60;;;17.20;99.90;;;;;;4945597;28;20098;-77
2023/05/22 09:55:21;;;;;;;7.60;3.85;;;17.20;99.90;;;;;;4945494;28;20156;-77
2023/05/22 09:57:49;;;;;;;5.78;4.47;;;17.20;99.90;;;;;;4945436;28;20039;-77
2023/05/22 10:00:18;;;;;;;6.57;4.32;;;17.20;99.90;;;;;;4943627;28;20054;-77
2023/05/22 10:02:52;;;;;;;8.63;4.43;;;17.30;99.90;;;;;;4968262;28;20548;-77
2023/05/22 10:05:22;;;;;;;9.20;5.00;;;17.30;99.90;;;;;;4925000;29;20051;-77
2023/05/22 10:07:50;;;;;;;6.43;4.75;;;17.40;99.90;;;;;;4926854;29;20070;-78
2023/05/22 10:10:19;;;;;;;6.00;4.22;;;17.40;99.90;;;;;;4945449;28;20062;-77
2023/05/22 10:12:52;;;;;;;10.05;5.57;;;17.50;99.90;;;;;;4942934;29;20047;-76
2023/05/22 10:15:18;;;;;;;6.28;4.50;;;17.60;99.90;;;;;;4945204;28;20043;-76
2023/05/22 10:17:44;;;;;;;9.20;5.68;;;17.60;99.90;;;;;;4926430;29;20051;-78
2023/05/22 10:20:10;;;;;;;6.30;4.57;;;17.70;99.90;;;;;;4945424;28;20431;-76
2023/05/22 10:22:37;;;;;;;7.85;4.57;;;17.70;99.90;;;;;;4944719;28;20047;-76
2023/05/22 10:25:03;;;;;;;10.73;5.65;;;17.80;99.90;;;;;;4944503;28;20050;-77
2023/05/22 10:27:29;;;;;;;14.20;6.40;;;17.80;99.90;;;;;;4944555;28;20085;-77
2023/05/22 10:30:16;;;;;;;9.48;6.05;;;17.90;99.90;;;;;;4942726;28;20079;-75
2023/05/22 10:32:57;;;;;;;9.93;6.35;;;18.00;99.90;;;;;;4943846;28;20126;-76
2023/05/22 10:35:37;;;;;;;9.05;5.60;;;18.10;99.90;;;;;;4943458;28;20487;-76
2023/05/22 10:38:39;;;;;;;9.82;6.38;;;18.10;99.90;;;;;;4944486;28;20035;-76
2023/05/22 10:41:05;;;;;;;14.90;6.22;;;18.10;99.90;;;;;;4936197;28;20387;-76
2023/05/22 10:43:31;;;;;;;9.73;5.47;;;18.00;99.90;;;;;;4943079;29;20079;-75
2023/05/22 10:46:04;;;;;;;8.27;5.63;;;18.00;99.90;;;;;;4944241;28;20516;-76
2023/05/22 10:48:40;;;;;;;8.45;5.40;;;18.00;99.90;;;;;;4943446;28;20316;-76
2023/05/22 10:51:07;;;;;;;10.35;5.35;;;18.10;99.90;;;;;;4943667;28;20194;-75
2023/05/22 10:53:34;;;;;;;9.05;5.38;;;18.10;99.90;;;;;;4942757;29;20058;-76
2023/05/22 10:56:09;;;;;;;11.25;6.22;;;18.10;99.90;;;;;;4944342;28;20060;-76
2023/05/22 10:58:38;;;;;;;8.93;5.72;;;18.20;99.90;;;;;;4943490;28;20058;-76
2023/05/22 11:01:11;;;;;;;8.07;5.68;;;18.20;99.90;;;;;;4943383;28;20564;-76
2023/05/22 11:03:57;;;;;;;11.27;5.45;;;18.20;99.90;;;;;;4942147;28;20046;-75
2023/05/22 11:07:00;;;;;;;12.32;6.32;;;18.30;99.90;;;;;;4944475;28;20127;-75
2023/05/22 11:09:33;;;;;;;8.98;6.07;;;18.30;99.90;;;;;;4938824;29;20055;-76
2023/05/22 11:12:37;;;;;;;10.40;6.78;;;18.30;99.90;;;;;;4942865;28;20066;-78
2023/05/22 11:15:07;;;;;;;7.40;5.60;;;18.40;99.90;;;;;;4872263;29;20632;-76
2023/05/22 11:17:45;;;;;;;9.00;5.38;;;18.40;99.90;;;;;;4902168;29;20486;-76
2023/05/22 11:20:16;;;;;;;12.68;7.15;;;18.40;99.90;;;;;;4931414;28;20538;-76
2023/05/22 11:22:43;;;;;;;11.75;6.03;;;18.40;99.90;;;;;;4946569;28;20047;-76
2023/05/22 11:25:17;;;;;;;9.88;6.45;;;18.40;99.90;;;;;;4947823;28;20422;-76
2023/05/22 11:27:45;;;;;;;10.50;6.13;;;18.40;99.90;;;;;;4970057;28;20048;-75
2023/05/22 11:30:11;;;;;;;10.77;6.10;;;18.40;99.90;;;;;;4947377;29;20051;-77
2023/05/22 11:32:39;;;;;;;11.50;6.95;;;18.40;99.90;;;;;;4945690;28;20237;-76
2023/05/22 11:35:06;;;;;;;8.30;5.72;;;18.40;99.90;;;;;;4947509;28;20051;-75
2023/05/22 11:37:36;;;;;;;11.82;6.90;;;18.40;99.90;;;;;;4951605;28;20058;-76
2023/05/22 11:40:04;;;;;;;7.97;5.60;;;18.40;99.90;;;;;;4925652;28;20142;-76
2023/05/22 11:42:30;;;;;;;8.48;6.22;;;18.40;99.90;;;;;;4930167;28;20074;-76
2023/05/22 11:44:55;;;;;;;10.32;6.05;;;18.30;99.90;;;;;;4960602;28;20043;-78
2023/05/22 11:47:21;;;;;;;11.45;5.80;;;18.30;99.90;;;;;;4945650;29;20035;-76
2023/05/22 11:49:47;;;;;;;9.73;5.55;;;18.30;99.90;;;;;;4945130;29;20464;-76
2023/05/22 11:52:15;;;;;;;10.95;6.75;;;18.30;99.90;;;;;;4961950;28;20045;-76
2023/05/22 11:54:44;;;;;;;10.13;6.13;;;18.30;99.90;;;;;;4929952;29;20320;-75
2023/05/22 11:57:10;;;;;;;11.30;6.10;;;18.30;99.90;;;;;;4946142;29;20047;-75
2023/05/22 11:59:36;;;;;;;10.43;5.68;;;18.30;99.90;;;;;;4947261;28;20375;-77
2023/05/22 12:02:01;;;;;;;11.63;6.95;;;18.30;99.90;;;;;;4945054;29;20074;-76
2023/05/22 12:04:27;;;;;;;13.82;7.45;;;18.20;99.90;;;;;;4945315;28;20327;-76
2023/05/22 12:06:53;;;;;;;11.93;5.90;;;18.20;99.90;;;;;;4947577;28;20039;-78
2023/05/22 12:09:19;;;;;;;12.20;6.25;;;18.20;99.90;;;;;;4965003;28;20493;-77
2023/05/22 12:11:48;;;;;;;9.80;6.55;;;18.30;99.90;;;;;;4942623;28;20129;-77
2023/05/22 12:14:14;;;;;;;10.45;6.57;;;18.30;99.90;;;;;;4946385;28;20542;-77
2023/05/22 12:16:40;;;;;;;9.57;6.40;;;18.30;99.90;;;;;;4960749;28;20106;-77
2023/05/22 12:19:06;;;;;;;11.27;6.22;;;18.30;99.90;;;;;;4946518;28;20486;-76
2023/05/22 12:21:32;;;;;;;13.18;6.80;;;18.40;99.90;;;;;;4943559;28;20359;-77
2023/05/22 12:24:05;;;;;;;12.15;6.93;;;18.30;99.90;;;;;;4939444;29;20043;-77
2023/05/22 12:26:31;;;;;;;8.88;5.68;;;18.30;99.90;;;;;;4966490;28;20604;-76
2023/05/22 12:28:58;;;;;;;10.40;6.22;;;18.30;99.90;;;;;;4946305;28;20533;-75
2023/05/22 12:31:24;;;;;;;9.48;6.30;;;18.30;99.90;;;;;;4946602;28;20035;-76
2023/05/22 12:33:54;;;;;;;11.27;6.82;;;18.30;99.90;;;;;;4977852;28;20220;-74
2023/05/22 12:36:19;;;;;;;10.63;5.93;;;18.20;99.90;;;;;;4945706;28;20043;-75
2023/05/22 12:38:45;;;;;;;10.75;6.13;;;18.20;99.90;;;;;;4973362;28;20085;-75